createdAt,value
2018-09-02T00:02:19.751Z,101283.97
2018-09-02T00:04:47.547Z,101285.73
2018-09-02T00:07:15.369Z,101281.56
2018-09-02T00:09:43.113Z,101283.19
2018-09-02T00:12:11.160Z,101285.41
2018-09-02T00:14:39.012Z,101289.31
2018-09-02T00:17:06.779Z,101289.41
2018-09-02T00:19:34.571Z,101284.75
2018-09-02T00:22:02.369Z,101292.85
2018-09-02T00:24:30.179Z,101284.08
2018-09-02T00:26:57.955Z,101291.58
2018-09-02T00:29:25.827Z,101294.08
2018-09-02T00:31:53.619Z,101297.13
2018-09-02T00:34:21.962Z,101300.74
2018-09-02T00:36:49.705Z,101299.97
2018-09-02T00:39:17.526Z,101296.33
2018-09-02T00:41:45.343Z,101289.61
2018-09-02T00:44:13.122Z,101294.30
2018-09-02T00:46:40.970Z,101288.13
2018-09-02T00:49:08.828Z,101292.00
2018-09-02T00:51:36.659Z,101293.32
2018-09-02T00:54:04.483Z,101292.04
2018-09-02T00:56:32.339Z,101284.84
2018-09-02T00:59:00.117Z,101291.67
2018-09-02T01:01:27.924Z,101289.14
2018-09-02T01:03:55.805Z,101280.52
2018-09-02T01:06:24.101Z,101274.94
2018-09-02T01:08:51.976Z,101271.39
2018-09-02T01:11:19.815Z,101267.72
2018-09-02T01:13:47.683Z,101274.07
2018-09-02T01:16:15.552Z,101269.06
2018-09-02T01:18:43.507Z,101271.11
2018-09-02T01:21:11.435Z,101276.28
2018-09-02T01:23:39.243Z,101272.70
2018-09-02T01:26:07.056Z,101265.16
2018-09-02T01:28:34.903Z,101269.42
2018-09-02T01:31:02.714Z,101265.61
2018-09-02T01:33:30.451Z,101273.16
2018-09-02T01:35:58.307Z,101272.94
2018-09-02T01:38:26.145Z,101276.73
2018-09-02T01:40:54.003Z,101274.13
2018-09-02T01:43:21.851Z,101271.54
2018-09-02T01:45:49.664Z,101269.09
2018-09-02T01:48:17.516Z,101267.81
2018-09-02T01:50:45.393Z,101264.23
2018-09-02T01:53:13.160Z,101259.05
2018-09-02T01:55:40.985Z,101260.33
2018-09-02T01:58:08.864Z,101258.23
2018-09-02T02:00:36.688Z,101257.48
2018-09-02T02:03:04.509Z,101256.38
2018-09-02T02:05:32.315Z,101254.47
2018-09-02T02:08:00.141Z,101259.76
2018-09-02T02:10:27.932Z,101254.66
2018-09-02T02:12:55.764Z,101249.75
2018-09-02T02:15:23.598Z,101248.76
2018-09-02T02:17:51.339Z,101249.11
2018-09-02T02:20:19.143Z,101246.15
2018-09-02T02:22:46.955Z,101244.75
2018-09-02T02:25:14.703Z,101237.44
2018-09-02T02:27:42.508Z,101235.09
2018-09-02T02:30:10.307Z,101237.19
2018-09-02T02:32:38.187Z,101242.63
2018-09-02T02:35:05.994Z,101229.89
2018-09-02T02:37:33.751Z,101233.42
2018-09-02T02:40:01.576Z,101238.45
2018-09-02T02:42:29.441Z,101233.55
2018-09-02T02:44:57.306Z,101233.13
2018-09-02T02:47:25.096Z,101229.25
2018-09-02T02:49:52.940Z,101229.00
2018-09-02T02:52:20.923Z,101228.59
2018-09-02T02:54:48.715Z,101230.25
2018-09-02T02:57:16.511Z,101234.47
2018-09-02T02:59:44.405Z,101221.92
2018-09-02T03:02:12.221Z,101226.09
2018-09-02T03:04:40.962Z,101225.96
2018-09-02T03:07:09.772Z,101233.16
2018-09-02T03:09:37.515Z,101229.87
2018-09-02T03:12:05.527Z,101230.20
2018-09-02T03:14:33.322Z,101229.95
2018-09-02T03:17:01.139Z,101231.69
2018-09-02T03:19:28.933Z,101222.65
2018-09-02T03:21:56.755Z,101218.05
2018-09-02T03:24:24.513Z,101226.05
2018-09-02T03:26:52.340Z,101228.84
2018-09-02T03:29:20.105Z,101223.64
2018-09-02T03:31:47.930Z,101222.34
2018-09-02T03:34:15.778Z,101224.59
2018-09-02T03:36:43.707Z,101231.21
2018-09-02T03:39:11.610Z,101222.20
2018-09-02T03:41:39.459Z,101227.73
2018-09-02T03:44:07.298Z,101219.55
2018-09-02T03:46:35.129Z,101215.47
2018-09-02T03:49:02.984Z,101219.48
2018-09-02T03:51:30.715Z,101214.34
2018-09-02T03:53:58.596Z,101215.72
2018-09-02T03:56:26.371Z,101219.59
2018-09-02T03:58:54.403Z,101225.39
2018-09-02T04:01:22.272Z,101219.59
2018-09-02T04:03:50.048Z,101223.17
2018-09-02T04:06:17.881Z,101220.47
2018-09-02T04:08:45.739Z,101219.05
2018-09-02T04:11:13.640Z,101219.88
2018-09-02T04:13:41.453Z,101217.17
2018-09-02T04:16:09.330Z,101208.44
2018-09-02T04:18:37.127Z,101210.11
2018-09-02T04:21:05.249Z,101210.21
2018-09-02T04:23:33.046Z,101205.98
2018-09-02T04:26:00.845Z,101210.07
2018-09-02T04:28:28.623Z,101204.89
2018-09-02T04:30:56.479Z,101202.39
2018-09-02T04:33:24.313Z,101203.23
2018-09-02T04:35:52.052Z,101202.64
2018-09-02T04:38:19.815Z,101207.36
2018-09-02T04:40:47.686Z,101197.72
2018-09-02T04:43:15.542Z,101199.09
2018-09-02T04:45:43.332Z,101202.54
2018-09-02T04:48:11.168Z,101205.29
2018-09-02T04:50:38.975Z,101208.84
2018-09-02T04:53:06.783Z,101210.21
2018-09-02T04:55:34.591Z,101208.58
2018-09-02T04:58:02.379Z,101214.78
2018-09-02T05:00:30.272Z,101213.73
2018-09-02T05:02:58.083Z,101209.56
2018-09-02T05:05:25.870Z,101205.87
2018-09-02T05:07:53.698Z,101205.44
2018-09-02T05:10:21.552Z,101195.02
2018-09-02T05:12:49.367Z,101192.77
2018-09-02T05:15:17.143Z,101190.41
2018-09-02T05:17:45.002Z,101195.08
2018-09-02T05:20:12.783Z,101190.16
2018-09-02T05:22:40.627Z,101187.77
2018-09-02T05:25:08.453Z,101193.56
2018-09-02T05:27:36.248Z,101187.59
2018-09-02T05:30:04.904Z,101183.45
2018-09-02T05:32:32.855Z,101190.69
2018-09-02T05:35:00.711Z,101187.94
2018-09-02T05:37:28.535Z,101190.69
2018-09-02T05:39:56.346Z,101186.41
2018-09-02T05:42:24.184Z,101190.90
2018-09-02T05:44:51.973Z,101193.88
2018-09-02T05:47:19.756Z,101193.66
2018-09-02T05:49:47.555Z,101189.33
2018-09-02T05:52:15.307Z,101195.48
2018-09-02T05:54:43.125Z,101195.23
2018-09-02T05:57:10.890Z,101193.13
2018-09-02T05:59:38.729Z,101190.66
2018-09-02T06:02:06.591Z,101182.49
2018-09-02T06:04:34.304Z,101193.80
2018-09-02T06:07:02.103Z,101187.23
2018-09-02T06:09:29.914Z,101189.00
2018-09-02T06:11:57.727Z,101188.52
2018-09-02T06:14:25.522Z,101193.54
2018-09-02T06:16:53.425Z,101187.03
2018-09-02T06:19:21.322Z,101184.66
2018-09-02T06:21:49.140Z,101174.75
2018-09-02T06:24:17.067Z,101182.34
2018-09-02T06:26:44.875Z,101183.77
2018-09-02T06:29:12.644Z,101184.03
2018-09-02T06:31:40.403Z,101179.72
2018-09-02T06:34:08.308Z,101181.94
2018-09-02T06:36:36.128Z,101188.56
2018-09-02T06:39:06.804Z,101183.59
2018-09-02T06:41:34.616Z,101179.47
2018-09-02T06:44:02.368Z,101180.09
2018-09-02T06:46:31.836Z,101186.47
2018-09-02T06:48:59.759Z,101189.77
2018-09-02T06:51:27.634Z,101181.27
2018-09-02T06:53:55.411Z,101178.28
2018-09-02T06:56:23.527Z,101188.02
2018-09-02T06:58:51.298Z,101184.51
2018-09-02T07:01:19.351Z,101186.72
2018-09-02T07:03:47.255Z,101181.75
2018-09-02T07:06:15.055Z,101184.19
2018-09-02T07:08:42.851Z,101178.81
2018-09-02T07:11:10.684Z,101183.00
2018-09-02T07:13:38.464Z,101178.39
2018-09-02T07:16:06.560Z,101178.19
2018-09-02T07:18:34.356Z,101183.30
2018-09-02T07:21:02.180Z,101182.34
2018-09-02T07:23:29.961Z,101170.91
2018-09-02T07:25:57.715Z,101174.34
2018-09-02T07:28:25.544Z,101164.56
2018-09-02T07:30:53.373Z,101157.44
2018-09-02T07:33:21.151Z,101164.70
2018-09-02T07:35:48.984Z,101168.91
2018-09-02T07:38:16.806Z,101166.47
2018-09-02T07:40:44.564Z,101164.06
2018-09-02T07:43:12.295Z,101164.14
2018-09-02T07:45:40.081Z,101157.00
2018-09-02T07:48:07.920Z,101166.27
2018-09-02T07:50:35.732Z,101160.81
2018-09-02T07:53:03.716Z,101165.42
2018-09-02T07:55:31.552Z,101164.73
2018-09-02T07:57:59.323Z,101165.16
2018-09-02T08:00:27.050Z,101171.34
2018-09-02T08:02:54.883Z,101173.04
2018-09-02T08:05:23.495Z,101177.30
2018-09-02T08:07:51.319Z,101171.50
2018-09-02T08:10:19.123Z,101171.83
2018-09-02T08:12:47.149Z,101161.61
2018-09-02T08:15:14.783Z,101168.83
2018-09-02T08:17:42.699Z,101171.33
2018-09-02T08:20:10.950Z,101171.31
2018-09-02T08:22:40.461Z,101170.24
2018-09-02T08:25:08.922Z,101169.92
2018-09-02T08:27:36.766Z,101173.30
2018-09-02T08:30:04.676Z,101170.80
2018-09-02T08:32:32.527Z,101167.75
2018-09-02T08:35:00.363Z,101170.51
2018-09-02T08:37:28.172Z,101161.34
2018-09-02T08:39:56.463Z,101161.60
2018-09-02T08:42:24.644Z,101162.14
2018-09-02T08:44:52.419Z,101154.91
2018-09-02T08:47:20.353Z,101163.77
2018-09-02T08:49:48.615Z,101159.06
2018-09-02T08:52:16.456Z,101151.52
2018-09-02T08:54:44.309Z,101154.30
2018-09-02T08:57:12.136Z,101150.95
2018-09-02T08:59:39.928Z,101155.89
2018-09-02T09:02:07.746Z,101154.19
2018-09-02T09:04:36.196Z,101155.77
2018-09-02T09:07:04.406Z,101152.42
2018-09-02T09:09:32.650Z,101154.32
2018-09-02T09:12:00.403Z,101159.05
2018-09-02T09:14:28.159Z,101161.05
2018-09-02T09:16:56.151Z,101160.55
2018-09-02T09:19:23.939Z,101158.34
2018-09-02T09:21:51.828Z,101155.80
2018-09-02T09:24:19.603Z,101152.13
2018-09-02T09:26:47.371Z,101141.63
2018-09-02T09:29:15.136Z,101146.89
2018-09-02T09:31:42.968Z,101147.97
2018-09-02T09:34:10.679Z,101147.77
2018-09-02T09:36:38.459Z,101154.09
2018-09-02T09:39:08.421Z,101145.81
2018-09-02T09:41:36.196Z,101147.20
2018-09-02T09:44:04.031Z,101144.43
2018-09-02T09:46:32.230Z,101145.50
2018-09-02T09:49:00.127Z,101145.81
2018-09-02T09:51:27.954Z,101158.30
2018-09-02T09:53:55.810Z,101152.25
2018-09-02T09:56:23.631Z,101145.27
2018-09-02T09:58:51.480Z,101152.55
2018-09-02T10:01:19.320Z,101147.00
2018-09-02T10:03:47.252Z,101139.70
2018-09-02T10:06:14.943Z,101135.27
2018-09-02T10:08:42.759Z,101130.98
2018-09-02T10:11:10.569Z,101130.56
2018-09-02T10:13:38.458Z,101125.21
2018-09-02T10:16:06.526Z,101129.11
2018-09-02T10:18:34.437Z,101130.17
2018-09-02T10:21:02.301Z,101128.28
2018-09-02T10:23:30.104Z,101122.39
2018-09-02T10:25:57.904Z,101140.17
2018-09-02T10:28:25.748Z,101123.29
2018-09-02T10:30:53.540Z,101118.52
2018-09-02T10:33:21.428Z,101122.39
2018-09-02T10:35:49.176Z,101110.58
2018-09-02T10:38:16.946Z,101115.02
2018-09-02T10:40:44.759Z,101110.07
2018-09-02T10:43:12.580Z,101115.98
2018-09-02T10:45:40.328Z,101113.17
2018-09-02T10:48:08.137Z,101114.00
2018-09-02T10:50:35.975Z,101116.84
2018-09-02T10:53:03.809Z,101113.81
2018-09-02T10:55:31.544Z,101113.28
2018-09-02T10:57:59.283Z,101107.44
2018-09-02T11:00:27.065Z,101113.92
2018-09-02T11:02:54.875Z,101117.77
2018-09-02T11:05:22.725Z,101111.92
2018-09-02T11:07:50.571Z,101103.32
2018-09-02T11:10:18.369Z,101097.68
2018-09-02T11:12:46.205Z,101103.50
2018-09-02T11:15:14.075Z,101095.73
2018-09-02T11:17:42.220Z,101100.11
2018-09-02T11:20:10.140Z,101101.20
2018-09-02T11:22:37.995Z,101095.41
2018-09-02T11:25:06.064Z,101090.94
2018-09-02T11:27:33.869Z,101088.49
2018-09-02T11:30:01.723Z,101092.95
2018-09-02T11:32:30.433Z,101090.41
2018-09-02T11:34:58.184Z,101085.95
2018-09-02T11:37:25.966Z,101093.45
2018-09-02T11:39:53.780Z,101082.78
2018-09-02T11:42:21.942Z,101086.69
2018-09-02T11:44:49.696Z,101079.70
2018-09-02T11:47:17.477Z,101087.25
2018-09-02T11:49:45.215Z,101083.97
2018-09-02T11:52:12.969Z,101076.95
2018-09-02T11:54:40.723Z,101075.89
2018-09-02T11:57:08.808Z,101076.63
2018-09-02T11:59:37.264Z,101068.58
2018-09-02T12:02:05.393Z,101072.95
2018-09-02T12:04:33.192Z,101066.48
2018-09-02T12:07:00.963Z,101056.91
2018-09-02T12:09:28.831Z,101062.42
2018-09-02T12:11:56.655Z,101066.20
2018-09-02T12:14:24.532Z,101053.08
2018-09-02T12:16:52.286Z,101047.12
2018-09-02T12:19:20.132Z,101048.30
2018-09-02T12:21:48.088Z,101047.73
2018-09-02T12:24:15.958Z,101042.12
2018-09-02T12:26:43.798Z,101035.67
2018-09-02T12:29:13.191Z,101038.55
2018-09-02T12:31:42.295Z,101032.29
2018-09-02T12:34:10.092Z,101034.19
2018-09-02T12:36:37.938Z,101034.67
2018-09-02T12:39:07.313Z,101025.11
2018-09-02T12:41:35.179Z,101024.50
2018-09-02T12:44:03.055Z,101024.88
2018-09-02T12:46:31.395Z,101019.50
2018-09-02T12:48:59.200Z,101029.77
2018-09-02T12:51:27.003Z,101025.45
2018-09-02T12:53:54.843Z,101026.70
2018-09-02T12:56:22.645Z,101029.87
2018-09-02T12:58:50.461Z,101031.16
2018-09-02T13:01:18.343Z,101018.83
2018-09-02T13:03:46.056Z,101025.30
2018-09-02T13:06:13.899Z,101025.94
2018-09-02T13:08:41.764Z,101022.92
2018-09-02T13:11:10.587Z,101026.06
2018-09-02T13:13:38.555Z,101025.89
2018-09-02T13:16:08.547Z,101031.66
2018-09-02T13:18:59.814Z,101021.91
2018-09-02T13:21:33.693Z,101020.41
2018-09-02T13:24:05.428Z,101020.95
2018-09-02T13:26:42.704Z,101020.06
2018-09-02T13:29:22.845Z,101023.98
2018-09-02T13:31:50.979Z,101025.21
2018-09-02T13:34:18.747Z,101013.52
2018-09-02T13:36:46.676Z,101016.91
2018-09-02T13:39:15.698Z,101011.81
2018-09-02T13:41:43.499Z,101007.48
2018-09-02T13:44:22.140Z,101006.98
2018-09-02T13:46:49.940Z,101011.47
2018-09-02T13:49:17.660Z,101016.61
2018-09-02T13:51:45.519Z,101014.04
2018-09-02T13:54:13.355Z,101011.47
2018-09-02T13:56:41.257Z,101016.25
2018-09-02T13:59:09.007Z,101005.33
2018-09-02T14:01:36.907Z,101010.08
2018-09-02T14:04:04.807Z,101006.27
2018-09-02T14:06:32.633Z,101001.31
2018-09-02T14:09:00.451Z,100999.77
2018-09-02T14:11:28.264Z,100999.92
2018-09-02T14:13:56.109Z,100992.40
2018-09-02T14:16:23.893Z,100993.20
2018-09-02T14:18:51.795Z,100984.39
2018-09-02T14:21:19.738Z,100993.11
2018-09-02T14:23:47.579Z,100982.98
2018-09-02T14:26:15.419Z,100989.95
2018-09-02T14:28:43.399Z,100990.27
2018-09-02T14:31:11.699Z,100986.03
2018-09-02T14:33:42.597Z,100970.58
2018-09-02T14:36:15.864Z,100977.22
2018-09-02T14:38:43.899Z,100979.74
2018-09-02T14:41:11.810Z,100971.09
2018-09-02T14:43:39.592Z,100970.23
2018-09-02T14:46:07.867Z,100973.53
2018-09-02T14:48:35.724Z,100971.52
2018-09-02T14:51:03.556Z,100969.32
2018-09-02T14:53:31.708Z,100965.94
2018-09-02T14:55:59.587Z,100972.34
2018-09-02T14:58:27.552Z,100969.73
2018-09-02T15:00:55.527Z,100980.72
2018-09-02T15:03:23.355Z,100975.68
2018-09-02T15:05:51.130Z,100976.11
2018-09-02T15:08:18.929Z,100975.69
2018-09-02T15:10:46.791Z,100976.97
2018-09-02T15:13:14.572Z,100974.05
2018-09-02T15:15:42.339Z,100983.23
2018-09-02T15:18:10.088Z,100979.41
2018-09-02T15:20:37.876Z,100980.36
2018-09-02T15:23:06.016Z,100984.55
2018-09-02T15:25:33.767Z,100981.89
2018-09-02T15:28:01.528Z,100978.29
2018-09-02T15:30:29.349Z,100971.98
2018-09-02T15:32:57.187Z,100968.66
2018-09-02T15:35:24.995Z,100971.69
2018-09-02T15:37:52.892Z,100978.05
2018-09-02T15:40:20.619Z,100969.50
2018-09-02T15:42:48.432Z,100970.06
2018-09-02T15:45:16.283Z,100972.00
2018-09-02T15:47:45.687Z,100971.52
2018-09-02T15:50:13.966Z,100966.25
2018-09-02T15:52:41.792Z,100965.09
2018-09-02T15:55:09.585Z,100963.14
2018-09-02T15:57:38.010Z,100961.24
2018-09-02T16:00:07.200Z,100964.94
2018-09-02T16:02:35.358Z,100963.55
2018-09-02T16:05:04.563Z,100956.91
2018-09-02T16:07:32.856Z,100958.57
2018-09-02T16:10:01.992Z,100950.23
2018-09-02T16:12:30.479Z,100948.84
2018-09-02T16:14:58.680Z,100954.46
2018-09-02T16:17:26.759Z,100945.02
2018-09-02T16:19:54.956Z,100945.84
2018-09-02T16:22:24.164Z,100943.05
2018-09-02T16:24:51.964Z,100941.66
2018-09-02T16:27:19.715Z,100941.44
2018-09-02T16:29:47.666Z,100942.78
2018-09-02T16:32:15.379Z,100948.62
2018-09-02T16:34:44.715Z,100941.70
2018-09-02T16:37:12.983Z,100943.31
2018-09-02T16:39:40.780Z,100944.48
2018-09-02T16:42:08.604Z,100947.36
2018-09-02T16:44:36.888Z,100949.00
2018-09-02T16:47:04.848Z,100944.81
2018-09-02T16:49:32.700Z,100949.81
2018-09-02T16:52:00.671Z,100949.83
2018-09-02T16:54:28.709Z,100940.11
2018-09-02T16:56:56.679Z,100940.68
2018-09-02T16:59:24.475Z,100937.38
2018-09-02T17:01:52.212Z,100937.64
2018-09-02T17:04:21.002Z,100939.00
2018-09-02T17:06:48.876Z,100937.93
2018-09-02T17:09:16.665Z,100932.12
2018-09-02T17:11:44.502Z,100934.08
2018-09-02T17:14:12.288Z,100936.00
2018-09-02T17:16:40.160Z,100934.66
2018-09-02T17:19:11.088Z,100933.83
2018-09-02T17:21:38.887Z,100936.57
2018-09-02T17:24:07.011Z,100927.45
2018-09-02T17:26:34.851Z,100924.13
2018-09-02T17:29:02.586Z,100926.39
2018-09-02T17:31:30.428Z,100920.27
2018-09-02T17:33:58.214Z,100919.46
2018-09-02T17:36:26.039Z,100914.20
2018-09-02T17:38:53.829Z,100913.37
2018-09-02T17:41:21.590Z,100918.08
2018-09-02T17:43:49.415Z,100920.29
2018-09-02T17:46:17.688Z,100913.08
2018-09-02T17:48:45.507Z,100909.52
2018-09-02T17:51:14.503Z,100907.83
2018-09-02T17:53:42.461Z,100909.50
2018-09-02T17:56:10.244Z,100906.73
2018-09-02T17:58:38.055Z,100909.80
2018-09-02T18:01:06.268Z,100910.63
2018-09-02T18:03:34.560Z,100905.66
2018-09-02T18:06:02.667Z,100906.48
2018-09-02T18:08:30.448Z,100908.98
2018-09-02T18:10:58.392Z,100898.19
2018-09-02T18:13:26.191Z,100898.74
2018-09-02T18:15:54.655Z,100905.10
2018-09-02T18:18:22.670Z,100898.75
2018-09-02T18:20:50.431Z,100905.96
2018-09-02T18:23:18.232Z,100914.79
2018-09-02T18:25:46.140Z,100914.55
2018-09-02T18:28:17.221Z,100917.58
2018-09-02T18:30:45.470Z,100911.48
2018-09-02T18:33:13.316Z,100918.69
2018-09-02T18:35:41.087Z,100919.50
2018-09-02T18:38:08.922Z,100913.42
2018-09-02T18:40:37.671Z,100912.61
2018-09-02T18:43:05.861Z,100917.58
2018-09-02T18:45:33.780Z,100912.30
2018-09-02T18:48:01.519Z,100909.56
2018-09-02T18:50:29.456Z,100918.41
2018-09-02T18:52:57.919Z,100921.99
2018-09-02T18:55:25.739Z,100923.66
2018-09-02T18:57:53.934Z,100925.88
2018-09-02T19:00:21.735Z,100916.19
2018-09-02T19:02:50.119Z,100915.91
2018-09-02T19:05:19.724Z,100917.56
2018-09-02T19:07:47.883Z,100919.23
2018-09-02T19:10:15.704Z,100921.45
2018-09-02T19:12:43.491Z,100925.31
2018-09-02T19:15:11.405Z,100917.56
2018-09-02T19:17:39.891Z,100917.30
2018-09-02T19:20:07.851Z,100916.17
2018-09-02T19:22:35.635Z,100922.79
2018-09-02T19:25:03.630Z,100930.56
2018-09-02T19:27:32.075Z,100927.49
2018-09-02T19:29:59.867Z,100922.52
2018-09-02T19:32:27.715Z,100918.36
2018-09-02T19:34:55.572Z,100915.31
2018-09-02T19:37:23.687Z,100903.69
2018-09-02T19:39:51.530Z,100905.38
2018-09-02T19:42:19.315Z,100894.56
2018-09-02T19:44:48.116Z,100901.77
2018-09-02T19:47:15.943Z,100905.66
2018-09-02T19:49:43.775Z,100905.64
2018-09-02T19:52:12.327Z,100908.37
2018-09-02T19:54:40.116Z,100909.22
2018-09-02T19:57:08.077Z,100908.13
2018-09-02T19:59:35.889Z,100906.73
2018-09-02T20:02:03.688Z,100910.07
2018-09-02T20:04:31.511Z,100913.09
2018-09-02T20:06:59.331Z,100907.00
2018-09-02T20:09:27.224Z,100896.51
2018-09-02T20:11:55.022Z,100903.97
2018-09-02T20:14:22.832Z,100895.93
2018-09-02T20:16:50.715Z,100894.00
2018-09-02T20:19:18.524Z,100891.80
2018-09-02T20:21:46.386Z,100889.03
2018-09-02T20:24:21.389Z,100886.25
2018-09-02T20:26:49.391Z,100890.95
2018-09-02T20:29:18.188Z,100889.02
2018-09-02T20:31:46.819Z,100882.64
2018-09-02T20:34:14.676Z,100875.20
2018-09-02T20:36:42.544Z,100881.53
2018-09-02T20:39:10.826Z,100883.20
2018-09-02T20:41:38.655Z,100887.36
2018-09-02T20:44:06.865Z,100880.99
2018-09-02T20:46:40.034Z,100880.14
2018-09-02T20:49:07.998Z,100873.77
2018-09-02T20:51:35.980Z,100874.34
2018-09-02T20:54:03.815Z,100873.22
2018-09-02T20:56:32.020Z,100879.31
2018-09-02T20:59:02.296Z,100874.61
2018-09-02T21:01:30.224Z,100870.75
2018-09-02T21:03:57.981Z,100875.16
2018-09-02T21:06:26.452Z,100878.20
2018-09-02T21:08:54.808Z,100869.36
2018-09-02T21:11:22.640Z,100868.23
2018-09-02T21:13:50.459Z,100869.08
2018-09-02T21:16:20.137Z,100866.30
2018-09-02T21:18:48.206Z,100863.25
2018-09-02T21:21:16.047Z,100861.05
2018-09-02T21:23:43.917Z,100859.94
2018-09-02T21:26:12.470Z,100864.09
2018-09-02T21:28:40.335Z,100861.05
2018-09-02T21:31:08.304Z,100864.37
2018-09-02T21:33:36.075Z,100859.64
2018-09-02T21:36:04.143Z,100851.91
2018-09-02T21:38:31.934Z,100843.34
2018-09-02T21:40:59.699Z,100840.86
2018-09-02T21:43:27.550Z,100856.05
2018-09-02T21:45:55.445Z,100848.86
2018-09-02T21:48:23.351Z,100857.67
2018-09-02T21:50:51.431Z,100860.17
2018-09-02T21:53:19.243Z,100859.30
2018-09-02T21:55:59.596Z,100857.09
2018-09-02T21:58:28.195Z,100859.55
2018-09-02T22:01:00.057Z,100861.48
2018-09-02T22:03:28.794Z,100857.87
2018-09-02T22:05:57.976Z,100862.56
2018-09-02T22:08:25.817Z,100865.60
2018-09-02T22:10:53.618Z,100867.51
2018-09-02T22:13:22.728Z,100862.88
2018-09-02T22:15:50.611Z,100860.63
2018-09-02T22:18:18.555Z,100857.28
2018-09-02T22:20:46.339Z,100858.72
2018-09-02T22:23:14.154Z,100847.12
2018-09-02T22:25:41.982Z,100852.11
2018-09-02T22:28:09.720Z,100850.98
2018-09-02T22:30:39.837Z,100843.80
2018-09-02T22:33:07.757Z,100839.12
2018-09-02T22:35:35.596Z,100831.39
2018-09-02T22:38:03.571Z,100833.30
2018-09-02T22:40:31.449Z,100826.39
2018-09-02T22:42:59.546Z,100830.53
2018-09-02T22:45:27.706Z,100826.12
2018-09-02T22:48:01.912Z,100820.87
2018-09-02T22:50:35.345Z,100808.70
2018-09-02T22:53:09.769Z,100799.31
2018-09-02T22:55:39.235Z,100799.05
2018-09-02T22:58:07.041Z,100798.47
2018-09-02T23:00:34.881Z,100804.21
2018-09-02T23:03:02.684Z,100798.16
2018-09-02T23:05:30.522Z,100798.44
2018-09-02T23:07:59.839Z,100795.41
2018-09-02T23:10:27.608Z,100788.22
2018-09-02T23:12:55.400Z,100797.03
2018-09-02T23:15:23.191Z,100785.41
2018-09-02T23:17:50.971Z,100782.65
2018-09-02T23:20:20.261Z,100790.96
2018-09-02T23:22:48.127Z,100786.81
2018-09-02T23:25:24.140Z,100783.20
2018-09-02T23:27:55.945Z,100776.30
2018-09-02T23:30:23.792Z,100768.55
2018-09-02T23:32:51.676Z,100769.37
2018-09-02T23:35:19.692Z,100760.53
2018-09-02T23:37:47.503Z,100755.30
2018-09-02T23:40:15.275Z,100747.83
2018-09-02T23:42:43.031Z,100739.80
2018-09-02T23:45:10.880Z,100734.30
2018-09-02T23:47:38.659Z,100725.44
2018-09-02T23:50:06.539Z,100722.95
2018-09-02T23:52:34.341Z,100723.21
2018-09-02T23:55:02.147Z,100722.36
2018-09-02T23:57:30.140Z,100716.56
2018-09-02T23:59:58.717Z,100713.75
